KMER/MER METAR and TAF weather

Enter ICAO airport designator
Station Type Date Time Source
KMER METAR 2023/12/06 16:53 UTC NOAA

KMER 061653Z 00000KT 6SM CLR 11/04 A3006 HZ


Station Type Date Time Source
KMER Decoded METAR 2023/12/06 16:53 UTC NOAA

Merced / Castle Air Force Base, CA, United States (KMER) 37-22N 120-34W 60M
Dec 06, 2023 - 11:53 AM EST / 2023.12.06 1653 UTC
Wind: Calm:0
Visibility: 6 mile(s):0
Sky conditions: clear
Temperature: 51 F (11 C)
Dew Point: 39 F (4 C)
Relative Humidity: 61%
Pressure (altimeter): 30.06 in. Hg (1017 hPa)
ob: KMER 061653Z 00000KT 6SM CLR 11/04 A3006 HZ
cycle: 17

Station Type Date Time Source
KMER TAF 2023/12/06 12:26 UTC NOAA

TAF KMER 061120Z 0612/0712 VRB03KT P6SM FEW150
FM062000 27010KT P6SM SCT100 BKN150
FM070300 33005KT P6SM BKN050 OVC100
AMD NOT SKED

Example: see airport list